createdAt,value
2018-05-04T00:00:07.788Z,0
2018-05-04T00:00:40.437Z,0
2018-05-04T00:01:12.460Z,0
2018-05-04T00:01:44.499Z,0
2018-05-04T00:02:16.500Z,0
2018-05-04T00:02:48.557Z,0
2018-05-04T00:03:20.598Z,0
2018-05-04T00:03:52.555Z,0
2018-05-04T00:04:24.602Z,0
2018-05-04T00:04:56.643Z,0
2018-05-04T00:05:28.632Z,0
2018-05-04T00:06:00.677Z,0
2018-05-04T00:06:32.697Z,0
2018-05-04T00:07:04.785Z,0
2018-05-04T00:07:36.831Z,0
2018-05-04T00:08:08.843Z,0
2018-05-04T00:08:40.878Z,0
2018-05-04T00:09:12.864Z,0
2018-05-04T00:09:44.883Z,0
2018-05-04T00:10:16.918Z,0
2018-05-04T00:10:48.940Z,0
2018-05-04T00:11:20.976Z,0
2018-05-04T00:11:53.091Z,0
2018-05-04T00:12:25.128Z,0
2018-05-04T00:12:57.153Z,0
2018-05-04T00:13:29.314Z,0
2018-05-04T00:14:01.415Z,0
2018-05-04T00:14:33.433Z,0
2018-05-04T00:15:05.422Z,0
2018-05-04T00:15:37.472Z,0
2018-05-04T00:16:09.649Z,0
2018-05-04T00:16:41.695Z,0
2018-05-04T00:17:13.725Z,0
2018-05-04T00:17:45.792Z,0
2018-05-04T00:18:17.817Z,0
2018-05-04T00:18:50.021Z,0
2018-05-04T00:19:22.556Z,0
2018-05-04T00:19:54.575Z,0
2018-05-04T00:20:26.642Z,0
2018-05-04T00:20:58.642Z,0
2018-05-04T00:21:30.667Z,0
2018-05-04T00:22:02.718Z,0
2018-05-04T00:22:35.346Z,0
2018-05-04T00:23:07.377Z,0
2018-05-04T00:23:39.399Z,0
2018-05-04T00:24:11.448Z,0
2018-05-04T00:24:43.476Z,0
2018-05-04T00:25:15.500Z,0
2018-05-04T00:25:47.550Z,0
2018-05-04T00:26:19.620Z,0
2018-05-04T00:26:51.592Z,0
2018-05-04T00:27:23.635Z,0
2018-05-04T00:27:55.695Z,0
2018-05-04T00:28:27.682Z,0
2018-05-04T00:28:59.708Z,0
2018-05-04T00:29:31.744Z,0
2018-05-04T00:30:03.799Z,0
2018-05-04T00:30:35.819Z,0
2018-05-04T00:31:07.912Z,0
2018-05-04T00:31:39.924Z,0
2018-05-04T00:32:12.053Z,0
2018-05-04T00:32:44.077Z,0
2018-05-04T00:33:16.131Z,0
2018-05-04T00:33:48.218Z,0
2018-05-04T00:34:20.276Z,0
2018-05-04T00:34:52.341Z,0
2018-05-04T00:35:24.348Z,0
2018-05-04T00:35:56.417Z,0
2018-05-04T00:36:28.449Z,0
2018-05-04T00:37:00.497Z,0
2018-05-04T00:37:32.501Z,0
2018-05-04T00:38:04.557Z,0
2018-05-04T00:38:36.549Z,0
2018-05-04T00:39:08.702Z,0
2018-05-04T00:39:40.705Z,0
2018-05-04T00:40:12.760Z,0
2018-05-04T00:40:44.804Z,0
2018-05-04T00:41:17.001Z,0
2018-05-04T00:41:49.021Z,0
2018-05-04T00:42:21.022Z,0
2018-05-04T00:42:53.063Z,0
2018-05-04T00:43:25.169Z,0
2018-05-04T00:43:57.218Z,0
2018-05-04T00:44:29.221Z,0
2018-05-04T00:45:01.373Z,0
2018-05-04T00:45:33.442Z,0
2018-05-04T00:46:05.493Z,0
2018-05-04T00:46:37.531Z,0
2018-05-04T00:47:09.531Z,0
2018-05-04T00:47:41.596Z,0
2018-05-04T00:48:13.614Z,0
2018-05-04T00:48:45.647Z,0
2018-05-04T00:49:17.699Z,0
2018-05-04T00:49:49.723Z,0
2018-05-04T00:50:21.797Z,0
2018-05-04T00:50:53.822Z,0
2018-05-04T00:51:25.847Z,0
2018-05-04T00:51:57.892Z,0
2018-05-04T00:52:29.929Z,0
2018-05-04T00:53:02.052Z,0
2018-05-04T00:53:34.092Z,0
2018-05-04T00:54:06.131Z,0
2018-05-04T00:54:38.165Z,0
2018-05-04T00:55:10.237Z,0
2018-05-04T00:55:42.291Z,0
2018-05-04T00:56:14.304Z,0
2018-05-04T00:56:46.376Z,0
2018-05-04T00:57:18.391Z,0
2018-05-04T00:57:50.403Z,0
2018-05-04T00:58:22.444Z,0
2018-05-04T00:58:54.434Z,0
2018-05-04T00:59:26.452Z,0
2018-05-04T00:59:58.562Z,0
2018-05-04T01:00:30.599Z,0
2018-05-04T01:01:02.598Z,0
2018-05-04T01:01:34.628Z,0
2018-05-04T01:02:06.646Z,0
2018-05-04T01:02:38.676Z,0
2018-05-04T01:03:10.725Z,0
2018-05-04T01:03:42.786Z,0
2018-05-04T01:04:14.818Z,0
2018-05-04T01:04:46.776Z,0
2018-05-04T01:05:18.818Z,0
2018-05-04T01:05:50.871Z,0
2018-05-04T01:06:22.888Z,0
2018-05-04T01:06:55.029Z,0
2018-05-04T01:07:27.043Z,0
2018-05-04T01:07:59.075Z,0
2018-05-04T01:08:31.078Z,0
2018-05-04T01:09:03.085Z,0
2018-05-04T01:09:35.153Z,0
2018-05-04T01:10:07.167Z,0
2018-05-04T01:10:39.208Z,0
2018-05-04T01:11:11.240Z,0
2018-05-04T01:11:43.264Z,0
2018-05-04T01:12:15.309Z,0
2018-05-04T01:12:47.321Z,0
2018-05-04T01:13:19.357Z,0
2018-05-04T01:13:51.370Z,0
2018-05-04T01:14:23.386Z,0
2018-05-04T01:14:55.432Z,0
2018-05-04T01:15:27.539Z,0
2018-05-04T01:15:59.543Z,0
2018-05-04T01:16:31.602Z,0
2018-05-04T01:17:03.655Z,0
2018-05-04T01:17:35.707Z,0
2018-05-04T01:18:07.864Z,0
2018-05-04T01:18:39.881Z,0
2018-05-04T01:19:11.897Z,0
2018-05-04T01:19:43.947Z,0
2018-05-04T01:20:16.004Z,0
2018-05-04T01:20:48.023Z,0
2018-05-04T01:21:20.069Z,0
2018-05-04T01:21:52.097Z,0
2018-05-04T01:22:24.117Z,0
2018-05-04T01:22:56.142Z,0
2018-05-04T01:23:28.171Z,0
2018-05-04T01:24:00.150Z,0
2018-05-04T01:24:32.172Z,0
2018-05-04T01:25:04.213Z,0
2018-05-04T01:25:36.269Z,0
2018-05-04T01:26:08.289Z,0
2018-05-04T01:26:40.308Z,0
2018-05-04T01:27:12.321Z,0
2018-05-04T01:27:44.333Z,0
2018-05-04T01:28:16.350Z,0
2018-05-04T01:28:48.358Z,0
2018-05-04T01:29:20.528Z,0
2018-05-04T01:29:52.661Z,0
2018-05-04T01:30:24.838Z,0
2018-05-04T01:30:56.811Z,0
2018-05-04T01:31:28.871Z,0
2018-05-04T01:32:00.912Z,0
2018-05-04T01:32:32.952Z,0
2018-05-04T01:33:04.973Z,0
2018-05-04T01:33:37.022Z,0
2018-05-04T01:34:09.106Z,0
2018-05-04T01:34:41.124Z,0
2018-05-04T01:35:13.137Z,0
2018-05-04T01:35:45.136Z,0
2018-05-04T01:36:17.166Z,0
2018-05-04T01:36:49.199Z,0
2018-05-04T01:37:22.181Z,0
2018-05-04T01:37:54.178Z,0
2018-05-04T01:38:26.186Z,0
2018-05-04T01:38:58.243Z,0
2018-05-04T01:39:30.266Z,0
2018-05-04T01:40:02.299Z,0
2018-05-04T01:40:34.358Z,0
2018-05-04T01:41:06.387Z,0
2018-05-04T01:41:38.415Z,0
2018-05-04T01:42:10.447Z,0
2018-05-04T01:42:42.473Z,0
2018-05-04T01:43:14.491Z,0
2018-05-04T01:43:46.512Z,0
2018-05-04T01:44:18.560Z,0
2018-05-04T01:44:51.510Z,0
2018-05-04T01:45:23.537Z,0
2018-05-04T01:45:55.586Z,0
2018-05-04T01:46:27.630Z,0
2018-05-04T01:46:59.658Z,0
2018-05-04T01:47:31.729Z,0
2018-05-04T01:48:03.751Z,0
2018-05-04T01:48:35.725Z,0
2018-05-04T01:49:07.814Z,0
2018-05-04T01:49:39.835Z,0
2018-05-04T01:50:11.887Z,0
2018-05-04T01:50:43.935Z,0
2018-05-04T01:51:15.958Z,0
2018-05-04T01:51:47.962Z,0
2018-05-04T01:52:19.970Z,0
2018-05-04T01:52:52.005Z,0
2018-05-04T01:53:24.021Z,0
2018-05-04T01:53:56.067Z,0
2018-05-04T01:54:28.075Z,0
2018-05-04T01:55:00.082Z,0
2018-05-04T01:55:32.119Z,0
2018-05-04T01:56:04.142Z,0
2018-05-04T01:56:36.181Z,0
2018-05-04T01:57:08.167Z,0
2018-05-04T01:57:40.207Z,0
2018-05-04T01:58:12.212Z,0
2018-05-04T01:58:44.262Z,0
2018-05-04T01:59:16.308Z,0
2018-05-04T01:59:48.327Z,0
2018-05-04T02:00:20.355Z,0
2018-05-04T02:00:52.357Z,0
2018-05-04T02:01:24.417Z,0
2018-05-04T02:01:56.417Z,0
2018-05-04T02:02:28.441Z,0
2018-05-04T02:03:00.461Z,0
2018-05-04T02:03:32.494Z,0
2018-05-04T02:04:04.715Z,0
2018-05-04T02:04:36.857Z,0
2018-05-04T02:05:09.008Z,0
2018-05-04T02:05:41.062Z,0
2018-05-04T02:06:13.050Z,0
2018-05-04T02:06:45.201Z,0
2018-05-04T02:07:17.234Z,0
2018-05-04T02:07:49.530Z,0
2018-05-04T02:08:21.530Z,0
2018-05-04T02:08:53.566Z,0
2018-05-04T02:09:25.590Z,0
2018-05-04T02:09:57.641Z,0
2018-05-04T02:10:29.696Z,0
2018-05-04T02:11:01.721Z,0
2018-05-04T02:11:33.763Z,0
2018-05-04T02:12:05.733Z,0
2018-05-04T02:12:37.746Z,0
2018-05-04T02:13:09.749Z,0
2018-05-04T02:13:41.772Z,0
2018-05-04T02:14:13.821Z,0
2018-05-04T02:14:45.842Z,0
2018-05-04T02:15:17.844Z,0
2018-05-04T02:15:49.865Z,0
2018-05-04T02:16:21.919Z,0
2018-05-04T02:16:53.945Z,0
2018-05-04T02:17:25.989Z,0
2018-05-04T02:17:58.019Z,0
2018-05-04T02:18:30.023Z,0
2018-05-04T02:19:02.056Z,0
2018-05-04T02:19:34.081Z,0
2018-05-04T02:20:06.125Z,0
2018-05-04T02:20:38.146Z,0
2018-05-04T02:21:10.198Z,0
2018-05-04T02:21:42.248Z,0
2018-05-04T02:22:14.299Z,0
2018-05-04T02:22:46.355Z,0
2018-05-04T02:23:18.498Z,0
2018-05-04T02:23:50.522Z,0
2018-05-04T02:24:22.538Z,0
2018-05-04T02:24:54.565Z,0
2018-05-04T02:25:26.637Z,0
2018-05-04T02:25:58.666Z,0
2018-05-04T02:26:30.650Z,0
2018-05-04T02:27:02.778Z,0
2018-05-04T02:27:34.833Z,0
2018-05-04T02:28:06.877Z,0
2018-05-04T02:28:38.971Z,0
2018-05-04T02:29:11.792Z,0
2018-05-04T02:29:43.805Z,0
2018-05-04T02:30:15.815Z,0
2018-05-04T02:30:47.871Z,0
2018-05-04T02:31:19.868Z,0
2018-05-04T02:31:51.877Z,0
2018-05-04T02:32:23.863Z,0
2018-05-04T02:32:55.937Z,0
2018-05-04T02:33:27.966Z,0
2018-05-04T02:34:00.015Z,0
2018-05-04T02:34:32.008Z,0
2018-05-04T02:35:04.033Z,0
2018-05-04T02:35:36.069Z,0
2018-05-04T02:36:08.109Z,0
2018-05-04T02:36:40.125Z,0
2018-05-04T02:37:12.159Z,0
2018-05-04T02:37:44.292Z,0
2018-05-04T02:38:16.316Z,0
2018-05-04T02:38:48.397Z,0
2018-05-04T02:39:20.453Z,0
2018-05-04T02:39:52.500Z,0
2018-05-04T02:40:24.554Z,0
2018-05-04T02:40:56.570Z,0
2018-05-04T02:41:28.621Z,0
2018-05-04T02:42:00.615Z,0
2018-05-04T02:42:32.661Z,0
2018-05-04T02:43:04.692Z,0
2018-05-04T02:43:36.729Z,0
2018-05-04T02:44:08.826Z,0
2018-05-04T02:44:40.884Z,0
2018-05-04T02:45:12.936Z,0
2018-05-04T02:45:44.946Z,0
2018-05-04T02:46:17.060Z,0
2018-05-04T02:46:49.116Z,0
2018-05-04T02:47:21.117Z,0
2018-05-04T02:47:53.139Z,0
2018-05-04T02:48:25.126Z,0
2018-05-04T02:48:57.159Z,0
2018-05-04T02:49:29.235Z,0
2018-05-04T02:50:01.277Z,0
2018-05-04T02:50:33.302Z,0
2018-05-04T02:51:05.353Z,0
2018-05-04T02:51:38.216Z,0
2018-05-04T02:52:10.245Z,0
2018-05-04T02:52:42.294Z,0
2018-05-04T02:53:14.298Z,0
2018-05-04T02:53:46.322Z,0
2018-05-04T02:54:18.376Z,0
2018-05-04T02:54:50.491Z,0
2018-05-04T02:55:26.537Z,0
2018-05-04T02:55:58.595Z,0
2018-05-04T02:56:30.733Z,0
2018-05-04T02:57:02.784Z,0
2018-05-04T02:57:34.816Z,0
2018-05-04T02:58:06.819Z,0
2018-05-04T02:58:38.825Z,0
2018-05-04T02:59:11.001Z,0
2018-05-04T02:59:43.179Z,0
2018-05-04T03:00:15.239Z,0
2018-05-04T03:00:47.260Z,0
2018-05-04T03:01:19.292Z,0
2018-05-04T03:01:51.400Z,0
2018-05-04T03:02:23.467Z,0
2018-05-04T03:02:55.478Z,0
2018-05-04T03:03:27.531Z,0
2018-05-04T03:03:59.645Z,0
2018-05-04T03:04:31.683Z,0
2018-05-04T03:05:03.693Z,0
2018-05-04T03:05:35.703Z,0
2018-05-04T03:06:07.750Z,0
2018-05-04T03:06:39.790Z,0
2018-05-04T03:07:11.849Z,0
2018-05-04T03:07:43.871Z,0
2018-05-04T03:08:15.881Z,0
2018-05-04T03:08:47.888Z,0
2018-05-04T03:09:19.966Z,0
2018-05-04T03:09:52.134Z,0
2018-05-04T03:10:24.153Z,0
2018-05-04T03:10:56.225Z,0
2018-05-04T03:11:28.282Z,0
2018-05-04T03:12:00.285Z,0
2018-05-04T03:12:32.331Z,0
2018-05-04T03:13:04.374Z,0
2018-05-04T03:13:36.383Z,0
2018-05-04T03:14:08.401Z,0
2018-05-04T03:14:40.443Z,0
2018-05-04T03:15:12.549Z,0
2018-05-04T03:15:44.598Z,0
2018-05-04T03:16:16.641Z,0
2018-05-04T03:16:48.636Z,0
2018-05-04T03:17:20.660Z,0
2018-05-04T03:17:52.712Z,0
2018-05-04T03:18:24.682Z,0
2018-05-04T03:18:56.801Z,0
2018-05-04T03:19:28.825Z,0
2018-05-04T03:20:00.833Z,0
2018-05-04T03:20:32.872Z,0
2018-05-04T03:21:04.906Z,0
2018-05-04T03:21:36.946Z,0
2018-05-04T03:22:09.458Z,0
2018-05-04T03:22:41.430Z,0
2018-05-04T03:23:13.455Z,4
2018-05-04T03:23:45.565Z,4
2018-05-04T03:24:17.587Z,4
2018-05-04T03:24:49.586Z,4
2018-05-04T03:25:21.548Z,4
2018-05-04T03:25:53.548Z,0
2018-05-04T03:26:25.585Z,0
2018-05-04T03:26:57.601Z,4
2018-05-04T03:27:29.658Z,4
2018-05-04T03:28:01.677Z,4
2018-05-04T03:28:33.743Z,4
2018-05-04T03:29:05.736Z,4
2018-05-04T03:29:37.723Z,4
2018-05-04T03:30:09.736Z,4
2018-05-04T03:30:41.813Z,4
2018-05-04T03:31:13.807Z,4
2018-05-04T03:31:45.833Z,8
2018-05-04T03:32:17.859Z,4
2018-05-04T03:32:49.870Z,8
2018-05-04T03:33:21.904Z,8
2018-05-04T03:33:53.920Z,8
2018-05-04T03:34:25.958Z,8
2018-05-04T03:34:58.013Z,8
2018-05-04T03:35:30.116Z,12
2018-05-04T03:36:02.110Z,8
2018-05-04T03:36:34.143Z,12
2018-05-04T03:37:06.188Z,16
2018-05-04T03:37:38.209Z,12
2018-05-04T03:38:10.240Z,16
2018-05-04T03:38:42.295Z,16
2018-05-04T03:39:14.333Z,16
2018-05-04T03:39:46.360Z,16
2018-05-04T03:40:18.424Z,20
2018-05-04T03:40:50.442Z,20
2018-05-04T03:41:22.471Z,24
2018-05-04T03:41:54.567Z,24
2018-05-04T03:42:26.601Z,24
2018-05-04T03:42:58.902Z,28
2018-05-04T03:43:30.841Z,28
2018-05-04T03:44:02.877Z,28
2018-05-04T03:44:35.023Z,32
2018-05-04T03:45:07.125Z,32
2018-05-04T03:45:39.155Z,36
2018-05-04T03:46:11.197Z,36
2018-05-04T03:46:43.270Z,36
2018-05-04T03:47:15.307Z,40
2018-05-04T03:47:47.360Z,44
2018-05-04T03:48:19.386Z,48
2018-05-04T03:48:51.435Z,48
2018-05-04T03:49:23.458Z,52
2018-05-04T03:49:55.472Z,52
2018-05-04T03:50:27.517Z,56
2018-05-04T03:50:59.616Z,60
2018-05-04T03:51:31.681Z,60
2018-05-04T03:52:03.865Z,64
2018-05-04T03:52:35.865Z,64
2018-05-04T03:53:07.888Z,68
2018-05-04T03:53:39.908Z,72
2018-05-04T03:54:11.943Z,76
2018-05-04T03:54:43.961Z,80
2018-05-04T03:55:15.951Z,80
2018-05-04T03:55:47.952Z,88
2018-05-04T03:56:20.013Z,92
2018-05-04T03:56:52.038Z,92
2018-05-04T03:57:24.055Z,96
2018-05-04T03:57:56.064Z,100
2018-05-04T03:58:28.094Z,104
2018-05-04T03:59:00.128Z,112
2018-05-04T03:59:32.198Z,112
2018-05-04T04:00:04.223Z,120
2018-05-04T04:00:36.222Z,120
2018-05-04T04:01:08.258Z,124
2018-05-04T04:01:40.287Z,132
2018-05-04T04:02:12.323Z,136
2018-05-04T04:02:44.385Z,136
2018-05-04T04:03:16.437Z,144
2018-05-04T04:03:48.545Z,148
2018-05-04T04:04:20.516Z,152
2018-05-04T04:04:52.566Z,156
2018-05-04T04:05:24.631Z,164
2018-05-04T04:05:56.655Z,168
2018-05-04T04:06:28.675Z,172
2018-05-04T04:07:00.707Z,176
2018-05-04T04:07:32.734Z,184
2018-05-04T04:08:04.863Z,192
2018-05-04T04:08:36.867Z,196
2018-05-04T04:09:08.910Z,200
2018-05-04T04:09:40.916Z,208
2018-05-04T04:10:12.947Z,212
2018-05-04T04:10:44.999Z,216
2018-05-04T04:11:17.861Z,220
2018-05-04T04:11:49.870Z,228
2018-05-04T04:12:21.841Z,232
2018-05-04T04:12:53.872Z,240
2018-05-04T04:13:25.898Z,244
2018-05-04T04:13:57.944Z,248
2018-05-04T04:14:29.965Z,256
2018-05-04T04:15:02.043Z,260
2018-05-04T04:15:34.734Z,268
2018-05-04T04:16:06.742Z,272
2018-05-04T04:16:38.832Z,280
2018-05-04T04:17:10.850Z,284
2018-05-04T04:17:42.887Z,292
2018-05-04T04:18:14.909Z,296
2018-05-04T04:18:47.007Z,304
2018-05-04T04:19:19.043Z,308
2018-05-04T04:19:51.107Z,316
2018-05-04T04:20:23.243Z,320
2018-05-04T04:20:55.290Z,328
2018-05-04T04:21:27.336Z,332
2018-05-04T04:21:59.334Z,336
2018-05-04T04:22:31.380Z,344
2018-05-04T04:23:03.474Z,348
2018-05-04T04:23:35.486Z,356
2018-05-04T04:24:07.500Z,364
2018-05-04T04:24:39.538Z,368
2018-05-04T04:25:11.749Z,376
2018-05-04T04:25:43.750Z,384
2018-05-04T04:26:15.837Z,392
2018-05-04T04:26:47.885Z,400
2018-05-04T04:27:19.929Z,408
2018-05-04T04:27:51.909Z,412
2018-05-04T04:28:23.964Z,412
2018-05-04T04:28:56.087Z,424
2018-05-04T04:29:28.208Z,424
2018-05-04T04:30:00.231Z,432
2018-05-04T04:30:32.291Z,440
2018-05-04T04:31:04.324Z,444
2018-05-04T04:31:36.382Z,456
2018-05-04T04:32:08.390Z,464
2018-05-04T04:32:40.426Z,472
2018-05-04T04:33:12.456Z,480
2018-05-04T04:33:44.510Z,488
2018-05-04T04:34:16.550Z,492
2018-05-04T04:34:48.614Z,500
2018-05-04T04:35:20.688Z,508
2018-05-04T04:35:52.767Z,508
2018-05-04T04:36:24.886Z,512
2018-05-04T04:36:57.001Z,520
2018-05-04T04:37:29.037Z,524
2018-05-04T04:38:01.071Z,528
2018-05-04T04:38:33.106Z,532
2018-05-04T04:39:05.185Z,536
2018-05-04T04:39:37.240Z,540
2018-05-04T04:40:09.253Z,544
2018-05-04T04:40:41.265Z,552
2018-05-04T04:41:13.326Z,556
2018-05-04T04:41:45.331Z,560
2018-05-04T04:42:17.374Z,568
2018-05-04T04:42:49.354Z,568
2018-05-04T04:43:21.392Z,576
2018-05-04T04:43:53.468Z,580
2018-05-04T04:44:25.516Z,584
2018-05-04T04:44:58.129Z,588
2018-05-04T04:45:30.343Z,596
2018-05-04T04:46:02.443Z,600
2018-05-04T04:46:34.507Z,612
2018-05-04T04:47:06.514Z,620
2018-05-04T04:47:38.525Z,632
2018-05-04T04:48:10.581Z,644
2018-05-04T04:48:42.622Z,660
2018-05-04T04:49:14.633Z,684
2018-05-04T04:49:46.616Z,712
2018-05-04T04:50:18.662Z,740
2018-05-04T04:50:50.663Z,768
2018-05-04T04:51:22.690Z,788
2018-05-04T04:51:54.757Z,808
2018-05-04T04:52:26.865Z,828
2018-05-04T04:52:58.884Z,848
2018-05-04T04:53:30.891Z,868
2018-05-04T04:54:02.943Z,892
2018-05-04T04:54:34.980Z,908
2018-05-04T04:55:07.003Z,924
2018-05-04T04:55:39.027Z,932
2018-05-04T04:56:11.069Z,948
2018-05-04T04:56:43.056Z,964
2018-05-04T04:57:15.198Z,976
2018-05-04T04:57:47.244Z,992
2018-05-04T04:58:19.250Z,1004
2018-05-04T04:58:51.302Z,1016
2018-05-04T04:59:23.361Z,1036
2018-05-04T04:59:55.431Z,1052
2018-05-04T05:00:27.423Z,1068
2018-05-04T05:00:59.504Z,1080
2018-05-04T05:01:31.619Z,1096
2018-05-04T05:02:03.670Z,1116
2018-05-04T05:02:35.688Z,1128
2018-05-04T05:03:07.725Z,1144
2018-05-04T05:03:40.626Z,1164
2018-05-04T05:04:12.668Z,1180
2018-05-04T05:04:44.693Z,1196
2018-05-04T05:05:16.677Z,1216
2018-05-04T05:05:48.715Z,1232
2018-05-04T05:06:20.832Z,1248
2018-05-04T05:06:52.900Z,1264
2018-05-04T05:07:24.928Z,1284
2018-05-04T05:07:56.913Z,1304
2018-05-04T05:08:28.901Z,1324
2018-05-04T05:09:00.918Z,1336
2018-05-04T05:09:32.959Z,1352
2018-05-04T05:10:05.005Z,1368
2018-05-04T05:10:37.018Z,1384
2018-05-04T05:11:09.064Z,1400
2018-05-04T05:11:41.158Z,1416
2018-05-04T05:12:13.181Z,1432
2018-05-04T05:12:45.204Z,1456
2018-05-04T05:13:17.210Z,1472
2018-05-04T05:13:49.217Z,1492
2018-05-04T05:14:21.251Z,1520
2018-05-04T05:14:53.441Z,1544
2018-05-04T05:15:25.464Z,1568
2018-05-04T05:15:57.485Z,1588
2018-05-04T05:16:29.528Z,1608
2018-05-04T05:17:01.596Z,1632
2018-05-04T05:17:33.616Z,1652
2018-05-04T05:18:05.655Z,1672
2018-05-04T05:18:37.672Z,1692
2018-05-04T05:19:09.744Z,1716
2018-05-04T05:19:41.737Z,1736
2018-05-04T05:20:13.767Z,1752
2018-05-04T05:20:45.862Z,1776
2018-05-04T05:21:17.933Z,1796
2018-05-04T05:21:50.146Z,1824
2018-05-04T05:22:22.289Z,1848
2018-05-04T05:22:54.353Z,1872
2018-05-04T05:23:26.374Z,1896
2018-05-04T05:23:58.399Z,1920
2018-05-04T05:24:30.429Z,1940
2018-05-04T05:25:02.477Z,1964
2018-05-04T05:25:34.515Z,1992
2018-05-04T05:26:06.653Z,2012
2018-05-04T05:26:38.692Z,2032
2018-05-04T05:27:10.721Z,2056
2018-05-04T05:27:42.777Z,2076
2018-05-04T05:28:14.794Z,2096
2018-05-04T05:28:46.838Z,2116
2018-05-04T05:29:18.917Z,2136
2018-05-04T05:29:50.944Z,2152
2018-05-04T05:30:22.941Z,2168
2018-05-04T05:30:55.297Z,2188
2018-05-04T05:31:27.907Z,2216
2018-05-04T05:32:02.028Z,2236
2018-05-04T05:32:34.351Z,2260
2018-05-04T05:33:06.349Z,2284
2018-05-04T05:33:38.391Z,2300
2018-05-04T05:34:10.508Z,2320
2018-05-04T05:34:42.497Z,2340
2018-05-04T05:35:14.548Z,2352
2018-05-04T05:35:46.585Z,2368
2018-05-04T05:36:18.591Z,2384
2018-05-04T05:36:50.659Z,2400
2018-05-04T05:37:22.773Z,2420
2018-05-04T05:37:55.752Z,2436
2018-05-04T05:38:28.110Z,2456
2018-05-04T05:39:00.217Z,2472
2018-05-04T05:39:32.723Z,2488
2018-05-04T05:40:04.741Z,2504
2018-05-04T05:40:36.969Z,2524
2018-05-04T05:41:09.054Z,2548
2018-05-04T05:41:41.205Z,2568
2018-05-04T05:42:13.675Z,2584
2018-05-04T05:42:45.802Z,2604
2018-05-04T05:43:17.798Z,2620
2018-05-04T05:43:49.823Z,2640
2018-05-04T05:44:21.879Z,2660
2018-05-04T05:44:53.905Z,2676
2018-05-04T05:45:25.894Z,2700
2018-05-04T05:45:57.964Z,2720
2018-05-04T05:46:29.958Z,2740
2018-05-04T05:47:01.992Z,2764
2018-05-04T05:47:33.994Z,2780
2018-05-04T05:48:06.039Z,2804
2018-05-04T05:48:38.093Z,2828
2018-05-04T05:49:10.176Z,2848
2018-05-04T05:49:42.313Z,2872
2018-05-04T05:50:14.372Z,2892
2018-05-04T05:50:46.374Z,2916
2018-05-04T05:51:18.844Z,2940
2018-05-04T05:51:51.000Z,2960
2018-05-04T05:52:23.049Z,2976
2018-05-04T05:52:55.079Z,2996
2018-05-04T05:53:27.157Z,3012
2018-05-04T05:53:59.243Z,3028
2018-05-04T05:54:31.341Z,3040
2018-05-04T05:55:03.357Z,3056
2018-05-04T05:55:35.473Z,3080
2018-05-04T05:56:07.444Z,3100
2018-05-04T05:56:39.453Z,3116
2018-05-04T05:57:11.576Z,3136
2018-05-04T05:57:43.578Z,3152
2018-05-04T05:58:15.589Z,3180
2018-05-04T05:58:47.622Z,3204
2018-05-04T05:59:19.633Z,3232
2018-05-04T05:59:51.662Z,3252
2018-05-04T06:00:23.733Z,3276
2018-05-04T06:00:55.869Z,3308
2018-05-04T06:01:28.800Z,3332
2018-05-04T06:02:00.768Z,3356
2018-05-04T06:02:32.795Z,3384
2018-05-04T06:03:04.832Z,3400
2018-05-04T06:03:36.880Z,3416
2018-05-04T06:04:09.097Z,3436
2018-05-04T06:04:41.161Z,3464
2018-05-04T06:05:13.175Z,3488
2018-05-04T06:05:45.175Z,3512
2018-05-04T06:06:17.271Z,3532
2018-05-04T06:06:51.123Z,3560
2018-05-04T06:07:25.276Z,3584
2018-05-04T06:08:03.397Z,3616
2018-05-04T06:08:38.220Z,3636
2018-05-04T06:09:11.881Z,3656
2018-05-04T06:09:47.576Z,3680
2018-05-04T06:10:24.603Z,3700
2018-05-04T06:10:57.415Z,3728
2018-05-04T06:11:29.468Z,3756
2018-05-04T06:12:01.521Z,3768
2018-05-04T06:12:33.595Z,3792
2018-05-04T06:13:05.596Z,3808
2018-05-04T06:13:37.606Z,3824
2018-05-04T06:14:09.673Z,3848
2018-05-04T06:14:41.715Z,3872
2018-05-04T06:15:13.701Z,3892
2018-05-04T06:15:45.684Z,3900
2018-05-04T06:16:17.737Z,3908
2018-05-04T06:16:49.795Z,3928
2018-05-04T06:17:21.941Z,3952
2018-05-04T06:17:53.954Z,3976
2018-05-04T06:18:26.034Z,4000
2018-05-04T06:18:58.054Z,4016
2018-05-04T06:19:30.078Z,4036
2018-05-04T06:20:02.169Z,4068
2018-05-04T06:20:34.197Z,4088
2018-05-04T06:21:06.219Z,4120
2018-05-04T06:21:38.305Z,4140
2018-05-04T06:22:10.381Z,4160
2018-05-04T06:22:42.399Z,4160
2018-05-04T06:23:14.452Z,4176
2018-05-04T06:23:46.490Z,4196
2018-05-04T06:24:18.555Z,4216
2018-05-04T06:24:50.603Z,4220
2018-05-04T06:25:22.677Z,4232
2018-05-04T06:25:54.693Z,4248
2018-05-04T06:26:26.673Z,4268
2018-05-04T06:26:58.818Z,4292
2018-05-04T06:27:30.903Z,4304
2018-05-04T06:28:02.902Z,4328
2018-05-04T06:28:34.983Z,4352
2018-05-04T06:29:07.037Z,4360
2018-05-04T06:29:39.035Z,4384
2018-05-04T06:30:11.082Z,4412
2018-05-04T06:30:43.153Z,4448
2018-05-04T06:31:15.167Z,4456
2018-05-04T06:31:47.247Z,4480
2018-05-04T06:32:19.276Z,4500
2018-05-04T06:32:51.364Z,4524
2018-05-04T06:33:23.435Z,4548
2018-05-04T06:33:55.613Z,4572
2018-05-04T06:34:27.714Z,4596
2018-05-04T06:34:59.758Z,4628
2018-05-04T06:35:32.603Z,4656
2018-05-04T06:36:04.589Z,4684
2018-05-04T06:36:37.562Z,4696
2018-05-04T06:37:09.582Z,4716
2018-05-04T06:37:41.661Z,4736
2018-05-04T06:38:13.666Z,4740
2018-05-04T06:38:45.831Z,4752
2018-05-04T06:39:17.880Z,4768
2018-05-04T06:39:49.968Z,4784
2018-05-04T06:40:21.984Z,4780
2018-05-04T06:40:53.993Z,4796
2018-05-04T06:41:26.158Z,4816
2018-05-04T06:41:58.246Z,4836
2018-05-04T06:42:30.244Z,4856
2018-05-04T06:43:02.337Z,4868
2018-05-04T06:43:34.395Z,4884
2018-05-04T06:44:06.396Z,4896
2018-05-04T06:44:38.422Z,4904
2018-05-04T06:45:10.445Z,4916
2018-05-04T06:45:42.622Z,4936
2018-05-04T06:46:14.629Z,4952
2018-05-04T06:46:46.672Z,4960
2018-05-04T06:47:18.721Z,4972
2018-05-04T06:47:50.738Z,4984
2018-05-04T06:48:22.753Z,4996
2018-05-04T06:48:54.877Z,4996
2018-05-04T06:49:26.920Z,5016
2018-05-04T06:49:58.963Z,5016
2018-05-04T06:50:30.956Z,5020
2018-05-04T06:51:03.009Z,5016
2018-05-04T06:51:35.056Z,5024
2018-05-04T06:52:07.040Z,5032
2018-05-04T06:52:39.056Z,5044
2018-05-04T06:53:11.206Z,5056
2018-05-04T06:53:43.261Z,5072
2018-05-04T06:54:15.396Z,5088
2018-05-04T06:54:47.468Z,5092
2018-05-04T06:55:19.561Z,5092
2018-05-04T06:55:51.574Z,5092
2018-05-04T06:56:23.640Z,5092
2018-05-04T06:56:55.779Z,5092
2018-05-04T06:57:27.804Z,5096
2018-05-04T06:57:59.852Z,5100
2018-05-04T06:58:31.907Z,5112
2018-05-04T06:59:03.955Z,5124
2018-05-04T06:59:36.125Z,5132
2018-05-04T07:00:08.279Z,5136
2018-05-04T07:00:40.324Z,5152
2018-05-04T07:01:12.365Z,5168
2018-05-04T07:01:44.406Z,5168
2018-05-04T07:02:16.447Z,5164
2018-05-04T07:02:48.494Z,5152
2018-05-04T07:03:20.540Z,5136
2018-05-04T07:03:52.560Z,5136
2018-05-04T07:04:24.591Z,5132
2018-05-04T07:04:56.633Z,5132
2018-05-04T07:05:28.672Z,5132
2018-05-04T07:06:00.717Z,5124
2018-05-04T07:06:32.717Z,5132
2018-05-04T07:07:04.754Z,5136
2018-05-04T07:07:36.751Z,5140
2018-05-04T07:08:08.758Z,5140
2018-05-04T07:08:40.828Z,5148
2018-05-04T07:09:12.871Z,5140
2018-05-04T07:09:44.886Z,5136
2018-05-04T07:10:16.878Z,5140
2018-05-04T07:10:48.879Z,5144
2018-05-04T07:11:20.891Z,5156
2018-05-04T07:11:52.896Z,5152
2018-05-04T07:12:24.881Z,5152
2018-05-04T07:12:56.971Z,5152
2018-05-04T07:13:29.009Z,5148
2018-05-04T07:14:01.052Z,5148
2018-05-04T07:14:33.076Z,5152
2018-05-04T07:15:05.282Z,5148
2018-05-04T07:15:37.430Z,5160
2018-05-04T07:16:09.467Z,5160
2018-05-04T07:16:41.473Z,5164
2018-05-04T07:17:13.482Z,5176
2018-05-04T07:17:45.535Z,5176
2018-05-04T07:18:17.548Z,5168
2018-05-04T07:18:49.568Z,5160
2018-05-04T07:19:21.668Z,5152
2018-05-04T07:19:53.655Z,5160
2018-05-04T07:20:25.692Z,5156
2018-05-04T07:20:57.736Z,5144
2018-05-04T07:21:29.845Z,5144
2018-05-04T07:22:02.002Z,5144
2018-05-04T07:22:33.957Z,5144
2018-05-04T07:23:05.994Z,5148
2018-05-04T07:23:38.063Z,5144
2018-05-04T07:24:10.082Z,5140
2018-05-04T07:24:42.072Z,5136
2018-05-04T07:25:14.215Z,5136
2018-05-04T07:25:46.377Z,5140
2018-05-04T07:26:18.439Z,5136
2018-05-04T07:26:50.414Z,5140
2018-05-04T07:27:22.435Z,5132
2018-05-04T07:27:54.429Z,5128
2018-05-04T07:28:26.476Z,5128
2018-05-04T07:28:58.471Z,5128
2018-05-04T07:29:30.488Z,5120
2018-05-04T07:30:02.543Z,5120
2018-05-04T07:30:34.650Z,5112
2018-05-04T07:31:06.682Z,5108
2018-05-04T07:31:38.732Z,5096
2018-05-04T07:32:10.773Z,5096